createdAt,value
2017-04-30T00:00:19.372Z,57.50
2017-04-30T00:02:47.671Z,57.70
2017-04-30T00:05:16.709Z,57.60
2017-04-30T00:07:45.084Z,57.90
2017-04-30T00:10:13.464Z,57.70
2017-04-30T00:12:41.759Z,58.00
2017-04-30T00:15:10.048Z,57.80
2017-04-30T00:17:38.327Z,58.00
2017-04-30T00:20:06.776Z,58.50
2017-04-30T00:22:35.073Z,57.90
2017-04-30T00:25:03.368Z,57.90
2017-04-30T00:27:32.404Z,58.60
2017-04-30T00:30:00.688Z,58.50
2017-04-30T00:32:28.983Z,58.50
2017-04-30T00:34:57.268Z,58.90
2017-04-30T00:37:25.627Z,58.80
2017-04-30T00:39:54.000Z,58.70
2017-04-30T00:42:22.375Z,58.40
2017-04-30T00:44:50.668Z,58.50
2017-04-30T00:47:18.952Z,59.00
2017-04-30T00:49:47.243Z,59.10
2017-04-30T00:52:15.521Z,58.90
2017-04-30T00:54:43.799Z,58.80
2017-04-30T00:57:12.835Z,58.80
2017-04-30T00:59:41.112Z,58.50
2017-04-30T01:02:09.404Z,58.30
2017-04-30T01:04:37.684Z,58.40
2017-04-30T01:07:06.979Z,59.00
2017-04-30T01:09:35.255Z,59.10
2017-04-30T01:12:03.633Z,59.10
2017-04-30T01:14:31.916Z,59.20
2017-04-30T01:17:00.199Z,59.00
2017-04-30T01:19:28.494Z,59.30
2017-04-30T01:21:56.772Z,59.10
2017-04-30T01:24:25.117Z,58.80
2017-04-30T01:26:53.489Z,58.90
2017-04-30T01:29:21.851Z,58.90
2017-04-30T01:31:50.144Z,59.10
2017-04-30T01:34:18.520Z,58.80
2017-04-30T01:36:46.813Z,58.80
2017-04-30T01:39:15.083Z,59.50
2017-04-30T01:41:43.372Z,59.00
2017-04-30T01:44:11.724Z,59.10
2017-04-30T01:46:40.207Z,58.90
2017-04-30T01:49:08.588Z,59.20
2017-04-30T01:51:37.379Z,59.10
2017-04-30T01:54:05.668Z,59.40
2017-04-30T01:56:33.946Z,59.40
2017-04-30T01:59:02.241Z,59.50
2017-04-30T02:01:30.516Z,59.50
2017-04-30T02:03:58.852Z,59.50
2017-04-30T02:06:27.233Z,59.60
2017-04-30T02:08:55.609Z,59.60
2017-04-30T02:11:23.879Z,59.70
2017-04-30T02:13:52.151Z,59.80
2017-04-30T02:16:20.441Z,59.50
2017-04-30T02:18:48.711Z,59.70
2017-04-30T02:21:16.995Z,59.60
2017-04-30T02:23:45.500Z,59.70
2017-04-30T02:26:13.844Z,59.80
2017-04-30T02:28:42.129Z,59.80
2017-04-30T02:31:10.499Z,59.90
2017-04-30T02:33:38.783Z,59.80
2017-04-30T02:36:07.060Z,60.00
2017-04-30T02:38:35.352Z,59.80
2017-04-30T02:41:03.703Z,59.70
2017-04-30T02:43:32.426Z,59.60
2017-04-30T02:46:00.699Z,59.90
2017-04-30T02:48:29.049Z,60.10
2017-04-30T02:50:57.431Z,60.10
2017-04-30T02:53:25.745Z,60.00
2017-04-30T02:55:54.764Z,59.80
2017-04-30T02:58:23.045Z,59.90
2017-04-30T03:00:51.335Z,60.10
2017-04-30T03:03:19.615Z,60.20
2017-04-30T03:05:47.904Z,60.40
2017-04-30T03:08:16.184Z,60.40
2017-04-30T03:10:44.548Z,60.20
2017-04-30T03:13:12.829Z,60.10
2017-04-30T03:15:41.117Z,60.00
2017-04-30T03:18:09.408Z,60.10
2017-04-30T03:20:37.680Z,60.60
2017-04-30T03:23:06.027Z,60.50
2017-04-30T03:25:34.305Z,60.50
2017-04-30T03:28:02.596Z,60.50
2017-04-30T03:30:30.875Z,60.30
2017-04-30T03:32:59.168Z,60.20
2017-04-30T03:35:27.512Z,60.40
2017-04-30T03:38:07.528Z,60.40
2017-04-30T03:40:47.816Z,61.00
2017-04-30T03:43:27.896Z,61.40
2017-04-30T03:46:08.144Z,61.40
2017-04-30T03:48:48.312Z,61.60
2017-04-30T03:51:28.524Z,61.40
2017-04-30T03:54:08.765Z,61.20
2017-04-30T03:56:48.933Z,61.10
2017-04-30T03:59:29.088Z,61.10
2017-04-30T04:02:09.164Z,61.00
2017-04-30T04:04:49.511Z,61.10
2017-04-30T04:07:29.596Z,61.00
2017-04-30T04:10:09.900Z,61.10
2017-04-30T04:12:50.080Z,61.50
2017-04-30T04:15:30.299Z,61.60
2017-04-30T04:18:10.520Z,61.50
2017-04-30T04:20:50.749Z,61.40
2017-04-30T04:23:30.848Z,61.30
2017-04-30T04:26:11.876Z,61.40
2017-04-30T04:28:52.024Z,61.40
2017-04-30T04:31:32.183Z,61.70
2017-04-30T04:34:12.281Z,61.70
2017-04-30T04:36:53.388Z,61.90
2017-04-30T04:39:33.516Z,62.00
2017-04-30T04:42:14.515Z,62.20
2017-04-30T04:44:54.540Z,62.30
2017-04-30T04:47:35.523Z,62.20
2017-04-30T04:50:15.751Z,62.50
2017-04-30T04:52:55.964Z,62.70
2017-04-30T04:55:36.161Z,62.60
2017-04-30T04:58:16.484Z,62.30
2017-04-30T05:00:56.636Z,62.80
2017-04-30T05:03:36.900Z,62.70
2017-04-30T05:06:17.095Z,63.20
2017-04-30T05:08:58.120Z,62.90
2017-04-30T05:11:38.228Z,62.40
2017-04-30T05:14:19.356Z,62.30
2017-04-30T05:16:59.619Z,62.80
2017-04-30T05:19:39.774Z,62.40
2017-04-30T05:22:19.872Z,62.00
2017-04-30T05:25:00.915Z,61.70
2017-04-30T05:27:40.927Z,61.80
2017-04-30T05:30:21.088Z,62.10
2017-04-30T05:33:01.131Z,61.00
2017-04-30T05:35:41.479Z,60.80
2017-04-30T05:38:21.817Z,61.30
2017-04-30T05:41:02.710Z,61.10
2017-04-30T05:43:42.772Z,60.60
2017-04-30T05:46:23.020Z,59.90
2017-04-30T05:49:03.124Z,59.90
2017-04-30T05:51:43.253Z,59.90
2017-04-30T05:54:23.410Z,61.10
2017-04-30T05:57:03.582Z,60.90
2017-04-30T05:59:43.767Z,59.80
2017-04-30T06:02:24.676Z,59.60
2017-04-30T06:05:05.003Z,59.30
2017-04-30T06:07:46.020Z,59.20
2017-04-30T06:10:26.156Z,58.60
2017-04-30T06:13:06.432Z,58.70
2017-04-30T06:15:46.513Z,57.60
2017-04-30T06:18:26.769Z,57.40
2017-04-30T06:21:06.996Z,57.40
2017-04-30T06:23:47.181Z,57.80
2017-04-30T06:26:27.400Z,57.80
2017-04-30T06:29:07.771Z,58.20
2017-04-30T06:31:47.931Z,57.20
2017-04-30T06:34:28.156Z,56.70
2017-04-30T06:37:08.240Z,56.90
2017-04-30T06:39:48.555Z,56.50
2017-04-30T06:42:28.748Z,56.20
2017-04-30T06:45:09.068Z,55.70
2017-04-30T06:47:49.050Z,55.40
2017-04-30T06:50:29.408Z,55.20
2017-04-30T06:53:09.459Z,54.20
2017-04-30T06:55:49.674Z,54.30
2017-04-30T06:58:30.520Z,54.40
2017-04-30T07:01:10.715Z,51.80
2017-04-30T07:03:50.824Z,51.30
2017-04-30T07:06:33.932Z,51.20
2017-04-30T07:09:14.172Z,49.40
2017-04-30T07:11:54.344Z,49.40
2017-04-30T07:17:26.039Z,50.50
2017-04-30T07:20:06.148Z,50.30
2017-04-30T07:22:46.307Z,50.40
2017-04-30T07:25:26.632Z,50.30
2017-04-30T07:28:06.739Z,49.90
2017-04-30T07:30:47.663Z,48.50
2017-04-30T07:33:27.944Z,48.40
2017-04-30T07:36:08.277Z,47.30
2017-04-30T07:38:48.380Z,47.20
2017-04-30T07:41:29.423Z,46.20
2017-04-30T07:43:57.721Z,46.60
2017-04-30T07:46:26.742Z,46.70
2017-04-30T07:48:55.054Z,46.40
2017-04-30T07:51:23.328Z,45.70
2017-04-30T07:53:51.703Z,45.10
2017-04-30T07:56:20.001Z,45.70
2017-04-30T07:58:48.362Z,45.20
2017-04-30T08:01:16.736Z,43.90
2017-04-30T08:03:45.015Z,43.40
2017-04-30T08:06:13.311Z,43.00
2017-04-30T08:08:41.588Z,43.10
2017-04-30T08:11:09.874Z,40.90
2017-04-30T08:13:38.172Z,41.40
2017-04-30T08:16:07.447Z,42.10
2017-04-30T08:18:36.108Z,40.90
2017-04-30T08:21:04.479Z,39.80
2017-04-30T08:23:32.866Z,38.70
2017-04-30T08:26:01.141Z,39.40
2017-04-30T08:28:30.280Z,38.80
2017-04-30T08:30:59.321Z,38.60
2017-04-30T08:33:27.600Z,37.60
2017-04-30T08:35:55.895Z,37.20
2017-04-30T08:38:24.167Z,38.50
2017-04-30T08:40:52.522Z,38.80
2017-04-30T08:43:20.796Z,38.70
2017-04-30T08:45:49.091Z,37.80
2017-04-30T08:48:17.366Z,37.20
2017-04-30T08:50:45.732Z,37.90
2017-04-30T08:53:14.031Z,37.70
2017-04-30T08:55:42.383Z,37.70
2017-04-30T08:58:10.766Z,38.20
2017-04-30T09:00:39.041Z,37.20
2017-04-30T09:03:07.336Z,36.20
2017-04-30T09:05:36.224Z,37.70
2017-04-30T09:08:04.527Z,37.50
2017-04-30T09:10:33.543Z,37.90
2017-04-30T09:13:01.847Z,37.60
2017-04-30T09:15:30.223Z,36.90
2017-04-30T09:17:58.610Z,36.60
2017-04-30T09:20:26.908Z,36.80
2017-04-30T09:22:55.187Z,36.60
2017-04-30T09:25:23.533Z,36.70
2017-04-30T09:27:51.808Z,36.60
2017-04-30T09:30:20.079Z,36.80
2017-04-30T09:32:48.384Z,34.30
2017-04-30T09:35:16.848Z,34.60
2017-04-30T09:37:45.143Z,36.30
2017-04-30T09:40:13.416Z,34.80
2017-04-30T09:42:41.771Z,34.50
2017-04-30T09:45:10.148Z,35.00
2017-04-30T09:47:38.444Z,34.70
2017-04-30T09:50:06.719Z,34.70
2017-04-30T09:52:35.017Z,34.40
2017-04-30T09:55:04.040Z,32.60
2017-04-30T09:57:32.315Z,33.50
2017-04-30T10:00:00.613Z,32.60
2017-04-30T10:02:28.888Z,32.20
2017-04-30T10:04:57.179Z,31.80
2017-04-30T10:07:25.455Z,31.80
2017-04-30T10:09:53.764Z,31.20
2017-04-30T10:12:22.043Z,29.20
2017-04-30T10:14:50.385Z,28.90
2017-04-30T10:17:19.079Z,27.10
2017-04-30T10:19:47.356Z,27.20
2017-04-30T10:22:15.647Z,27.50
2017-04-30T10:24:43.999Z,26.90
2017-04-30T10:27:12.378Z,26.20
2017-04-30T10:29:40.656Z,26.30
2017-04-30T10:32:09.025Z,26.20
2017-04-30T10:34:37.304Z,25.90
2017-04-30T10:37:05.684Z,24.60
2017-04-30T10:39:33.983Z,25.80
2017-04-30T10:42:02.337Z,25.00
2017-04-30T10:44:30.707Z,25.30
2017-04-30T10:46:58.980Z,25.40
2017-04-30T10:49:27.303Z,24.40
2017-04-30T10:51:56.323Z,26.10
2017-04-30T10:54:24.598Z,23.90
2017-04-30T10:56:52.907Z,24.90
2017-04-30T10:59:21.192Z,24.20
2017-04-30T11:01:49.565Z,23.60
2017-04-30T11:04:17.841Z,25.30
2017-04-30T11:06:46.147Z,26.10
2017-04-30T11:09:14.420Z,26.90
2017-04-30T11:11:42.698Z,27.10
2017-04-30T11:14:11.044Z,26.70
2017-04-30T11:16:39.419Z,26.40
2017-04-30T11:19:07.708Z,25.80
2017-04-30T11:21:36.005Z,24.80
2017-04-30T11:24:04.295Z,23.60
2017-04-30T11:26:33.316Z,23.80
2017-04-30T11:29:01.607Z,23.50
2017-04-30T11:31:29.903Z,22.00
2017-04-30T11:33:58.177Z,21.60
2017-04-30T11:36:26.547Z,22.30
2017-04-30T11:38:54.819Z,22.90
2017-04-30T11:41:23.119Z,23.50
2017-04-30T11:43:51.392Z,22.80
2017-04-30T11:46:20.115Z,23.80
2017-04-30T11:48:49.148Z,25.70
2017-04-30T11:51:17.423Z,26.00
2017-04-30T11:53:45.711Z,27.50
2017-04-30T11:56:13.999Z,27.60
2017-04-30T11:58:42.287Z,26.90
2017-04-30T12:01:10.564Z,27.60
2017-04-30T12:03:38.911Z,28.50
2017-04-30T12:06:07.292Z,29.60
2017-04-30T12:08:35.667Z,29.10
2017-04-30T12:11:04.048Z,29.40
2017-04-30T12:13:32.426Z,28.90
2017-04-30T12:16:00.799Z,28.60
2017-04-30T12:18:29.181Z,27.30
2017-04-30T12:20:57.472Z,27.40
2017-04-30T12:23:25.749Z,27.70
2017-04-30T12:25:54.072Z,26.80
2017-04-30T12:28:22.347Z,26.50
2017-04-30T12:30:50.623Z,27.40
2017-04-30T12:33:18.919Z,28.10
2017-04-30T12:35:47.194Z,27.80
2017-04-30T12:38:15.487Z,27.90
2017-04-30T12:40:43.765Z,28.90
2017-04-30T12:43:12.353Z,29.40
2017-04-30T12:45:40.631Z,28.50
2017-04-30T12:48:08.999Z,28.40
2017-04-30T12:50:37.272Z,28.90
2017-04-30T12:53:05.559Z,29.00
2017-04-30T12:55:33.928Z,29.70
2017-04-30T12:58:02.303Z,29.90
2017-04-30T13:00:30.579Z,29.60
2017-04-30T13:02:58.860Z,28.60
2017-04-30T13:05:27.240Z,28.40
2017-04-30T13:07:55.516Z,28.80
2017-04-30T13:10:23.816Z,30.20
2017-04-30T13:12:52.096Z,28.40
2017-04-30T13:15:20.439Z,28.80
2017-04-30T13:17:48.715Z,29.30
2017-04-30T13:20:17.008Z,29.60
2017-04-30T13:22:45.779Z,30.20
2017-04-30T13:25:14.055Z,28.50
2017-04-30T13:27:42.348Z,29.20
2017-04-30T13:30:10.633Z,28.70
2017-04-30T13:32:38.924Z,28.30
2017-04-30T13:35:07.203Z,29.30
2017-04-30T13:37:36.355Z,30.00
2017-04-30T13:40:04.632Z,30.20
2017-04-30T13:42:32.916Z,29.50
2017-04-30T13:45:01.219Z,29.00
2017-04-30T13:47:29.491Z,29.40
2017-04-30T13:49:57.780Z,29.30
2017-04-30T13:52:26.795Z,29.60
2017-04-30T13:54:55.417Z,27.60
2017-04-30T13:57:23.696Z,27.90
2017-04-30T13:59:51.971Z,27.30
2017-04-30T14:02:20.276Z,27.10
2017-04-30T14:04:48.553Z,27.80
2017-04-30T14:07:16.856Z,25.70
2017-04-30T14:09:45.127Z,24.60
2017-04-30T14:12:13.915Z,22.40
2017-04-30T14:14:42.935Z,24.00
2017-04-30T14:17:11.333Z,24.10
2017-04-30T14:19:39.612Z,22.40
2017-04-30T14:22:07.983Z,22.90
2017-04-30T14:24:36.276Z,23.10
2017-04-30T14:27:04.551Z,22.10
2017-04-30T14:29:32.903Z,20.80
2017-04-30T14:32:01.287Z,19.70
2017-04-30T14:34:29.665Z,18.10
2017-04-30T14:36:58.039Z,14.90
2017-04-30T14:39:26.321Z,13.30
2017-04-30T14:41:54.607Z,12.50
2017-04-30T14:44:22.880Z,12.40
2017-04-30T14:46:51.175Z,11.60
2017-04-30T14:49:19.449Z,10.60
2017-04-30T14:51:47.759Z,10.30
2017-04-30T14:54:16.772Z,9.80
2017-04-30T14:56:45.043Z,9.80
2017-04-30T14:59:13.334Z,9.80
2017-04-30T15:01:41.607Z,9.70
2017-04-30T15:04:09.902Z,8.90
2017-04-30T15:06:38.271Z,9.10
2017-04-30T15:09:06.658Z,8.70
2017-04-30T15:11:35.027Z,8.40
2017-04-30T15:14:03.408Z,8.10
2017-04-30T15:16:31.682Z,8.00
2017-04-30T15:19:00.056Z,8.20
2017-04-30T15:21:28.439Z,7.70
2017-04-30T15:23:56.817Z,8.00
2017-04-30T15:26:25.531Z,7.90
2017-04-30T15:28:53.883Z,7.80
2017-04-30T15:31:22.175Z,7.60
2017-04-30T15:33:50.537Z,7.60
2017-04-30T15:36:18.831Z,7.70
2017-04-30T15:38:47.188Z,8.20
2017-04-30T15:41:15.567Z,9.70
2017-04-30T15:43:43.868Z,10.70
2017-04-30T15:46:12.239Z,12.10
2017-04-30T15:48:40.603Z,13.20
2017-04-30T15:51:08.879Z,14.60
2017-04-30T15:53:37.250Z,16.20
2017-04-30T15:56:05.523Z,17.20
2017-04-30T15:58:33.904Z,18.50
2017-04-30T16:01:02.181Z,19.50
2017-04-30T16:03:30.456Z,20.10
2017-04-30T16:05:58.751Z,20.60
2017-04-30T16:08:27.032Z,20.80
2017-04-30T16:10:55.327Z,20.10
2017-04-30T16:13:24.348Z,20.90
2017-04-30T16:15:52.759Z,20.40
2017-04-30T16:18:21.049Z,21.40
2017-04-30T16:20:49.408Z,21.60
2017-04-30T16:23:17.702Z,22.00
2017-04-30T16:25:46.063Z,22.00
2017-04-30T16:28:14.352Z,22.00
2017-04-30T16:30:42.631Z,22.10
2017-04-30T16:33:10.923Z,22.50
2017-04-30T16:35:39.572Z,21.50
2017-04-30T16:38:08.221Z,22.10
2017-04-30T16:40:37.236Z,22.30
2017-04-30T16:43:05.511Z,22.40
2017-04-30T16:45:33.915Z,23.00
2017-04-30T16:48:02.188Z,23.00
2017-04-30T16:50:30.480Z,23.30
2017-04-30T16:52:58.756Z,23.30
2017-04-30T16:55:27.080Z,23.30
2017-04-30T16:57:55.373Z,23.70
2017-04-30T17:00:23.643Z,24.20
2017-04-30T17:02:51.940Z,24.10
2017-04-30T17:05:20.215Z,23.90
2017-04-30T17:07:48.507Z,24.40
2017-04-30T17:10:17.295Z,25.00
2017-04-30T17:12:45.647Z,25.90
2017-04-30T17:15:13.920Z,26.60
2017-04-30T17:17:42.321Z,26.50
2017-04-30T17:20:10.696Z,26.00
2017-04-30T17:22:38.983Z,25.70
2017-04-30T17:25:07.255Z,26.90
2017-04-30T17:27:35.531Z,26.30
2017-04-30T17:30:03.831Z,25.80
2017-04-30T17:32:32.192Z,26.30
2017-04-30T17:35:00.547Z,26.20
2017-04-30T17:37:28.824Z,25.90
2017-04-30T17:39:57.145Z,26.50
2017-04-30T17:42:26.167Z,27.00
2017-04-30T17:44:54.518Z,27.10
2017-04-30T17:47:23.555Z,27.30
2017-04-30T17:49:51.848Z,27.50
2017-04-30T17:52:20.147Z,27.30
2017-04-30T17:54:48.430Z,27.50
2017-04-30T17:57:16.747Z,27.70
2017-04-30T17:59:45.029Z,27.90
2017-04-30T18:02:13.309Z,27.60
2017-04-30T18:04:41.704Z,27.90
2017-04-30T18:07:09.983Z,28.00
2017-04-30T18:09:38.360Z,28.30
2017-04-30T18:12:06.639Z,28.90
2017-04-30T18:14:34.944Z,28.60
2017-04-30T18:17:03.288Z,28.60
2017-04-30T18:19:31.568Z,29.00
2017-04-30T18:21:59.864Z,29.10
2017-04-30T18:24:28.140Z,29.40
2017-04-30T18:26:56.446Z,29.80
2017-04-30T18:29:24.728Z,29.30
2017-04-30T18:31:53.029Z,30.00
2017-04-30T18:34:21.320Z,30.10
2017-04-30T18:36:49.599Z,30.60
2017-04-30T18:39:17.968Z,30.50
2017-04-30T18:41:46.243Z,31.00
2017-04-30T18:44:14.629Z,30.70
2017-04-30T18:46:42.908Z,30.70
2017-04-30T18:49:11.199Z,30.90
2017-04-30T18:51:39.479Z,31.10
2017-04-30T18:54:07.784Z,31.50
2017-04-30T18:56:36.820Z,31.60
2017-04-30T18:59:05.097Z,31.80
2017-04-30T19:01:33.477Z,31.70
2017-04-30T19:04:01.752Z,31.50
2017-04-30T19:06:30.047Z,31.90
2017-04-30T19:08:58.328Z,32.30
2017-04-30T19:11:26.648Z,32.20
2017-04-30T19:13:54.930Z,31.90
2017-04-30T19:16:23.225Z,32.30
2017-04-30T19:18:51.516Z,32.50
2017-04-30T19:21:19.800Z,32.40
2017-04-30T19:23:48.100Z,32.70
2017-04-30T19:26:16.438Z,32.60
2017-04-30T19:28:44.731Z,32.70
2017-04-30T19:31:13.008Z,32.80
2017-04-30T19:33:41.326Z,32.90
2017-04-30T19:36:09.657Z,33.00
2017-04-30T19:38:37.939Z,33.50
2017-04-30T19:41:06.231Z,33.50
2017-04-30T19:43:34.521Z,33.60
2017-04-30T19:46:03.687Z,33.50
2017-04-30T19:48:31.972Z,33.80
2017-04-30T19:51:00.327Z,34.40
2017-04-30T19:53:28.603Z,34.20
2017-04-30T19:55:56.882Z,34.50
2017-04-30T19:58:25.187Z,34.60
2017-04-30T20:00:54.241Z,34.50
2017-04-30T20:03:22.536Z,34.60
2017-04-30T20:05:50.816Z,34.60
2017-04-30T20:08:19.676Z,34.50
2017-04-30T20:10:47.968Z,35.00
2017-04-30T20:13:16.343Z,35.10
2017-04-30T20:15:44.645Z,35.20
2017-04-30T20:18:12.918Z,35.70
2017-04-30T20:20:41.219Z,35.20
2017-04-30T20:23:10.244Z,35.50
2017-04-30T20:25:38.640Z,35.50
2017-04-30T20:28:06.912Z,36.10
2017-04-30T20:30:35.915Z,36.10
2017-04-30T20:33:04.205Z,36.20
2017-04-30T20:35:33.000Z,36.30
2017-04-30T20:38:01.348Z,36.40
2017-04-30T20:40:29.619Z,36.60
2017-04-30T20:42:57.909Z,36.50
2017-04-30T20:45:26.811Z,36.60
2017-04-30T20:47:55.103Z,36.80
2017-04-30T20:50:23.447Z,36.90
2017-04-30T20:52:51.821Z,37.10
2017-04-30T20:55:20.100Z,37.20
2017-04-30T20:57:48.472Z,37.60
2017-04-30T21:00:16.856Z,37.70
2017-04-30T21:02:45.132Z,37.90
2017-04-30T21:05:13.424Z,37.90
2017-04-30T21:07:41.786Z,37.70
2017-04-30T21:10:10.083Z,37.60
2017-04-30T21:12:38.355Z,37.60
2017-04-30T21:15:06.707Z,37.60
2017-04-30T21:17:35.004Z,37.80
2017-04-30T21:20:03.288Z,37.80
2017-04-30T21:22:31.652Z,37.70
2017-04-30T21:24:59.931Z,37.90
2017-04-30T21:27:28.296Z,38.00
2017-04-30T21:29:56.576Z,38.10
2017-04-30T21:32:24.859Z,38.20
2017-04-30T21:34:53.159Z,38.20
2017-04-30T21:37:21.441Z,38.20
2017-04-30T21:39:50.475Z,38.60
2017-04-30T21:42:18.755Z,38.40
2017-04-30T21:44:47.154Z,38.50
2017-04-30T21:47:15.428Z,38.40
2017-04-30T21:49:43.705Z,38.70
2017-04-30T21:52:12.001Z,38.90
2017-04-30T21:54:40.363Z,39.20
2017-04-30T21:57:08.658Z,39.10
2017-04-30T21:59:37.008Z,39.30
2017-04-30T22:02:05.308Z,39.50
2017-04-30T22:04:33.588Z,39.70
2017-04-30T22:07:01.940Z,40.50
2017-04-30T22:09:30.308Z,41.10
2017-04-30T22:11:58.589Z,41.80
2017-04-30T22:14:26.891Z,41.50
2017-04-30T22:16:55.631Z,41.60
2017-04-30T22:19:23.960Z,42.30
2017-04-30T22:21:52.307Z,42.60
2017-04-30T22:24:20.679Z,42.20
2017-04-30T22:26:48.984Z,42.60
2017-04-30T22:29:17.260Z,42.50
2017-04-30T22:31:45.556Z,43.70
2017-04-30T22:34:14.578Z,43.10
2017-04-30T22:36:42.868Z,43.50
2017-04-30T22:39:11.164Z,44.70
2017-04-30T22:41:39.440Z,44.40
2017-04-30T22:44:07.810Z,44.50
2017-04-30T22:46:36.089Z,44.40
2017-04-30T22:49:04.383Z,44.70
2017-04-30T22:51:32.735Z,45.60
2017-04-30T22:54:01.039Z,45.40
2017-04-30T22:56:29.778Z,45.40
2017-04-30T22:58:58.076Z,46.50
2017-04-30T23:01:26.369Z,47.00
2017-04-30T23:03:54.657Z,46.80
2017-04-30T23:06:23.016Z,47.30
2017-04-30T23:08:51.315Z,47.20
2017-04-30T23:11:19.659Z,46.90
2017-04-30T23:13:47.937Z,46.70
2017-04-30T23:16:16.217Z,47.10
2017-04-30T23:18:44.594Z,47.70
2017-04-30T23:21:12.873Z,48.20
2017-04-30T23:23:41.242Z,48.50
2017-04-30T23:26:09.515Z,49.10
2017-04-30T23:28:37.808Z,47.80
2017-04-30T23:31:06.559Z,47.90
2017-04-30T23:33:34.876Z,47.60
2017-04-30T23:36:03.152Z,47.60
2017-04-30T23:38:31.513Z,48.70
2017-04-30T23:40:59.808Z,48.40
2017-04-30T23:43:28.155Z,48.90
2017-04-30T23:45:56.652Z,49.30
2017-04-30T23:48:24.931Z,49.60
2017-04-30T23:50:53.252Z,49.70
2017-04-30T23:53:22.475Z,49.90
2017-04-30T23:55:50.751Z,50.40
2017-04-30T23:58:19.045Z,50.60
